2019-08-17 - 13:08:00

SR: 0416 - SS: 1851

RWY: 25


OBSERVATION: n/a

RVR Mean 1 min: (Runway Visual Range)
A: P2000 - B: P2000 - C: P2000
RVR Mean 10 min:
A: P2000 - B: P2000 - C: P2000
WARNING: n/a
W25: 170-240(210-11kt) 06kt-15kt
W07: 180-270(210-09kt) 05kt-18kt
OTHER: n/a

QFE: (tatsächlicher Luftdruck) 1002.7 hPa = 29.58 inHg
QNH:(Luftdruck auf Meereshöhe) 1008.5 hPa = 29.76 inHg
Temperatur: 18.6 °C
Dew point(Taupunkt): 16.4 °C

METAR:  00221 SPDL31 EDDG 171255 SPECI EDDG 171255Z 23011KT 4500 -RA FEW014 BKN022 19/16 Q1008 BECMG 8000 BKN013= 
METAR (aus weather.noaa.gov):
2019/08/17 12:50 EDDG 171250Z 23011KT 200V260 9999 BKN024 20/16 Q1008 TEMPO 4000 -RADZ BKN013 0

TAF (aus weather.noaa.gov):
2019/08/17 12:27 TAF EDDG 171100Z 1712/1812 21012KT 9999 BKN015 BECMG 1712/1715 BKN010 TEMPO 1712/1714 21015G25KT TEMPO 1713/1717 4000 -RADZ BR BKN008 BECMG 1716/1719 18005KT BKN015 BECMG 1803/1806 3500 RA BKN010 BECMG 1809/1812 24006KT 9999 NSW BKN015 0
NOWCAST
688
FODL44 EDDG 171300
FODL44 EDDG 1908171305
# Nowcasting EDDG 17.08.2019 13:05 UTC
Parameter/Stunde14151617181920
Windrichtung210210210200200200200
Windgeschwindigkeit111098766
Böen--------------
Lufttemperatur21212020191919
Taupunkt16161617171717
Belagstemperatur22212120191918
Wetter-vorherrschend-RA-RA-RA-RA------
QNH1008100810081008100810081008
Wind in 5000 ft240/20250/20240/25250/20250/25250/25250/25
Wind in 3000 ft230/20230/25240/25240/25240/20240/25240/25
Wind in 2000 ft220/25220/25230/25230/20220/25220/25230/30
Wind in 1000 ft210/20210/20220/20220/15210/20210/20210/25